Time;durP1;ratioP1;P1;durP2;ratioP2;P2;SDS_P1;SDS_P2;PMS_P1;PMS_P2;Temp;Humidity;BMP_temperature;BMP_pressure;BME280_temperature;BME280_humidity;BME280_pressure;Samples;Min_cycle;Max_cycle;Signal;HPM_P1;HPM_P2
2022/01/09 00:00:16;;;;;;;140.97;43.17;;;;;;;4.66;100.00;98252.75;4938575;29;20444;-85
2022/01/09 00:02:42;;;;;;;98.10;32.07;;;;;;;5.10;100.00;98338.47;4945739;29;20457;-85
2022/01/09 00:05:09;;;;;;;98.30;31.33;;;;;;;6.47;100.00;98587.75;4946201;29;20576;-86
2022/01/09 00:07:34;;;;;;;106.60;31.47;;;;;;;4.93;100.00;98333.44;4938612;29;20178;-85
2022/01/09 00:10:01;;;;;;;101.63;32.03;;;;;;;6.72;100.00;98639.16;4941173;29;20425;-87
2022/01/09 00:12:26;;;;;;;127.10;37.40;;;;;;;6.65;100.00;98643.03;4938241;29;20275;-85
2022/01/09 00:14:52;;;;;;;105.13;32.90;;;;;;;4.93;100.00;98334.28;4921780;29;20650;-85
2022/01/09 00:17:18;;;;;;;101.57;31.83;;;;;;;4.70;100.00;98265.50;4937953;29;20170;-84
2022/01/09 00:19:44;;;;;;;94.37;31.27;;;;;;;4.43;100.00;98219.06;4938914;29;20560;-86
2022/01/09 00:22:11;;;;;;;105.63;32.97;;;;;;;5.04;100.00;98340.69;4939199;29;20516;-86
2022/01/09 00:24:36;;;;;;;100.70;33.03;;;;;;;6.12;100.00;98484.75;4939311;29;20288;-84
2022/01/09 00:27:03;;;;;;;98.73;30.63;;;;;;;7.02;100.00;98635.53;4920750;29;20426;-85
2022/01/09 00:29:29;;;;;;;104.63;30.23;;;;;;;4.97;100.00;98322.78;4925341;29;20189;-86
2022/01/09 00:31:54;;;;;;;106.07;31.70;;;;;;;6.70;100.00;98638.25;4921311;29;20413;-87
2022/01/09 00:34:20;;;;;;;112.50;31.83;;;;;;;2.89;100.00;97989.56;4939008;29;20201;-85
2022/01/09 00:36:45;;;;;;;104.60;33.00;;;;;;;4.24;100.00;98200.56;4940945;29;20185;-87
2022/01/09 00:39:11;;;;;;;105.47;30.97;;;;;;;5.34;100.00;98424.94;4939537;29;20607;-85
2022/01/09 00:41:36;;;;;;;106.17;32.43;;;;;;;6.65;100.00;98576.81;4921220;29;20267;-86
2022/01/09 00:44:02;;;;;;;103.97;31.00;;;;;;;5.81;100.00;98439.72;4937960;29;20157;-85
2022/01/09 00:46:28;;;;;;;107.57;32.40;;;;;;;3.99;100.00;98174.34;4938758;29;20300;-86
2022/01/09 00:48:53;;;;;;;123.20;35.00;;;;;;;3.35;100.00;98091.88;4939203;29;20166;-87
2022/01/09 00:51:19;;;;;;;114.20;35.03;;;;;;;4.82;100.00;98315.38;4921338;29;20184;-86
2022/01/09 00:53:44;;;;;;;126.60;36.17;;;;;;;4.45;100.00;98256.75;4938945;29;20250;-86
2022/01/09 00:56:10;;;;;;;137.73;38.33;;;;;;;4.28;100.00;98225.00;4938075;29;20614;-83
2022/01/09 00:58:35;;;;;;;145.37;38.57;;;;;;;4.14;100.00;98195.13;4937304;29;20174;-86
2022/01/09 01:01:02;;;;;;;145.87;37.47;;;;;;;4.43;100.00;98256.66;4937522;29;20193;-86
2022/01/09 01:03:28;;;;;;;150.00;38.70;;;;;;;3.67;100.00;98138.50;4937953;29;20166;-86
2022/01/09 01:05:54;;;;;;;147.30;38.87;;;;;;;5.84;100.00;98496.75;4938533;29;20436;-84
2022/01/09 01:08:19;;;;;;;148.67;40.60;;;;;;;6.52;100.00;98582.91;4929866;29;20204;-84
2022/01/09 01:10:45;;;;;;;153.40;41.73;;;;;;;5.50;100.00;98436.56;4921788;29;20180;-85
2022/01/09 01:13:10;;;;;;;163.90;43.63;;;;;;;4.60;100.00;98268.34;4936538;29;20554;-84
2022/01/09 01:15:36;;;;;;;171.33;43.23;;;;;;;5.11;100.00;98340.19;4921068;29;20178;-86
2022/01/09 01:18:03;;;;;;;153.60;43.57;;;;;;;6.07;100.00;98476.09;4920751;29;20169;-86
2022/01/09 01:20:31;;;;;;;167.27;44.43;;;;;;;4.34;100.00;98172.69;4937119;29;20184;-85
2022/01/09 01:23:02;;;;;;;168.73;43.93;;;;;;;4.58;100.00;98221.47;4936992;29;20452;-85
2022/01/09 01:25:27;;;;;;;160.50;43.07;;;;;;;4.04;100.00;98107.81;4921301;29;20281;-86
2022/01/09 01:27:53;;;;;;;146.10;42.07;;;;;;;6.36;100.00;98458.22;4937111;29;20434;-83
2022/01/09 01:30:19;;;;;;;153.50;42.07;;;;;;;5.15;100.00;98256.78;4919868;29;20196;-85
2022/01/09 01:32:44;;;;;;;155.13;40.47;;;;;;;3.96;100.00;98081.56;4938265;29;20168;-86
2022/01/09 01:35:11;;;;;;;161.80;43.67;;;;;;;6.40;100.00;98470.09;4922077;29;20173;-86
2022/01/09 01:37:41;;;;;;;140.67;40.90;;;;;;;6.60;100.00;98465.09;4936764;29;20173;-87
2022/01/09 01:40:08;;;;;;;132.87;39.87;;;;;;;5.99;100.00;98438.91;4919838;29;20169;-85
2022/01/09 01:42:34;;;;;;;168.03;51.90;;;;;;;6.70;100.00;98522.56;4936617;29;20835;-87
2022/01/09 01:45:00;;;;;;;133.53;39.80;;;;;;;6.24;100.00;98470.22;4919614;29;20418;-84
2022/01/09 01:47:25;;;;;;;161.43;50.30;;;;;;;6.41;100.00;98461.78;4939000;29;20193;-85
2022/01/09 01:49:51;;;;;;;124.63;38.57;;;;;;;6.32;100.00;98456.34;4938591;29;20610;-84
2022/01/09 01:52:28;;;;;;;132.67;39.40;;;;;;;6.92;100.00;98528.56;4956156;29;20224;-86
2022/01/09 01:54:54;;;;;;;153.70;50.20;;;;;;;6.95;100.00;98533.75;4958224;28;20196;-84
2022/01/09 01:57:20;;;;;;;122.40;40.17;;;;;;;4.58;100.00;98136.25;4942027;29;20187;-86
2022/01/09 01:59:47;;;;;;;121.20;40.17;;;;;;;6.99;100.00;98540.66;4960795;29;20232;-85
2022/01/09 02:02:13;;;;;;;114.27;37.03;;;;;;;6.88;100.00;98566.13;4969304;29;20247;-87
2022/01/09 02:04:40;;;;;;;125.40;38.10;;;;;;;6.76;100.00;98545.44;4963667;29;20304;-85
2022/01/09 02:07:07;;;;;;;115.83;35.93;;;;;;;5.17;100.00;98259.34;4942829;29;20420;-85
2022/01/09 02:09:34;;;;;;;120.53;36.27;;;;;;;3.79;100.00;98089.91;4958949;29;20937;-84
2022/01/09 02:11:59;;;;;;;112.40;34.83;;;;;;;6.67;100.00;98537.50;4959242;29;20412;-85
2022/01/09 02:14:25;;;;;;;117.23;39.13;;;;;;;6.75;100.00;98548.75;4958673;29;20409;-84
2022/01/09 02:16:51;;;;;;;125.67;37.07;;;;;;;7.08;100.00;98537.66;4958316;29;20661;-87
2022/01/09 02:19:20;;;;;;;119.13;36.87;;;;;;;5.96;100.00;98316.50;4941556;29;20188;-88
2022/01/09 02:21:46;;;;;;;110.03;35.07;;;;;;;5.11;100.00;98182.16;4958813;29;20637;-85
2022/01/09 02:24:14;;;;;;;105.83;33.57;;;;;;;7.18;100.00;98532.22;4944884;29;20211;-85
2022/01/09 02:26:40;;;;;;;106.37;35.40;;;;;;;5.28;100.00;98226.44;4960438;29;20184;-87
2022/01/09 02:29:06;;;;;;;113.10;35.37;;;;;;;5.63;100.00;98272.34;4961397;29;20925;-86
2022/01/09 02:31:34;;;;;;;107.50;35.23;;;;;;;5.71;100.00;98301.16;4944066;29;20475;-86
2022/01/09 02:34:01;;;;;;;105.73;35.87;;;;;;;7.08;100.00;98515.03;4958774;29;20165;-85
2022/01/09 02:36:26;;;;;;;109.80;38.30;;;;;;;7.19;100.00;98507.94;4957211;29;20953;-85
2022/01/09 02:38:52;;;;;;;122.13;45.33;;;;;;;5.49;100.00;98211.50;4959347;29;20188;-86
2022/01/09 02:41:18;;;;;;;112.00;37.10;;;;;;;5.05;100.00;98151.81;4967178;29;20223;-85
2022/01/09 02:43:43;;;;;;;105.83;33.77;;;;;;;7.33;100.00;98497.66;4979511;29;20149;-84
2022/01/09 02:48:37;;;;;;;97.93;34.37;;;;;;;6.57;100.00;98370.28;4958373;29;20215;-84
2022/01/09 02:51:09;;;;;;;104.77;34.10;;;;;;;6.45;100.00;98352.19;4942821;29;20280;-84
2022/01/09 02:53:36;;;;;;;98.07;33.13;;;;;;;6.95;100.00;98490.13;4956922;29;20552;-86
2022/01/09 02:56:12;;;;;;;96.57;33.87;;;;;;;7.04;100.00;98486.34;4957873;29;20172;-85
2022/01/09 02:58:39;;;;;;;90.50;33.07;;;;;;;6.79;100.00;98430.75;4956291;29;20867;-84
2022/01/09 03:01:06;;;;;;;103.27;34.47;;;;;;;6.10;100.00;98324.69;4957663;29;20511;-85
2022/01/09 03:03:34;;;;;;;94.43;34.27;;;;;;;7.01;100.00;98498.78;4940513;29;20960;-85
2022/01/09 03:06:00;;;;;;;104.80;37.40;;;;;;;7.09;100.00;98494.06;4939487;29;20435;-86
2022/01/09 03:08:26;;;;;;;165.20;59.17;;;;;;;6.96;100.00;98495.22;4939940;29;20494;-85
2022/01/09 03:10:53;;;;;;;126.47;43.50;;;;;;;6.97;100.00;98491.94;4924409;29;20645;-85
2022/01/09 03:13:19;;;;;;;104.27;34.50;;;;;;;5.02;100.00;98189.31;4955806;29;20435;-84
2022/01/09 03:15:44;;;;;;;115.60;36.20;;;;;;;4.79;100.00;98124.69;4957185;29;20495;-85
2022/01/09 03:18:12;;;;;;;109.57;35.90;;;;;;;7.14;100.00;98485.09;4940308;29;20272;-85
2022/01/09 03:20:38;;;;;;;113.77;37.23;;;;;;;5.59;100.00;98201.06;4957357;29;20161;-86
2022/01/09 03:23:03;;;;;;;106.40;37.00;;;;;;;5.03;100.00;98137.47;4940006;29;20478;-86
2022/01/09 03:25:30;;;;;;;108.60;35.20;;;;;;;6.05;100.00;98293.44;4959444;29;20247;-85
2022/01/09 03:27:59;;;;;;;195.50;77.20;;;;;;;6.34;100.00;98339.16;4958079;29;20275;-84
2022/01/09 03:30:26;;;;;;;147.77;56.83;;;;;;;4.77;100.00;98066.13;4956966;29;20184;-84
2022/01/09 03:32:54;;;;;;;122.77;41.23;;;;;;;7.42;100.00;98482.91;4939537;29;20271;-85
2022/01/09 03:35:22;;;;;;;105.67;39.63;;;;;;;7.52;100.00;98495.09;4939901;29;20219;-86
2022/01/09 03:37:48;;;;;;;111.57;40.00;;;;;;;7.50;100.00;98491.63;4939755;29;20188;-85
2022/01/09 03:40:18;;;;;;;112.53;40.60;;;;;;;7.35;100.00;98485.09;4940073;29;20173;-86
2022/01/09 03:42:45;;;;;;;123.23;45.93;;;;;;;7.34;100.00;98498.47;4941097;29;20212;-86
2022/01/09 03:45:11;;;;;;;130.30;47.57;;;;;;;7.21;100.00;98486.19;4957795;29;20180;-85
2022/01/09 03:47:37;;;;;;;126.80;44.00;;;;;;;6.09;100.00;98327.97;4955996;29;20650;-86
2022/01/09 03:50:08;;;;;;;113.73;42.13;;;;;;;5.90;100.00;98279.47;4957666;29;20234;-87
2022/01/09 03:52:37;;;;;;;262.00;72.20;;;;;;;7.19;100.00;98447.53;4958445;29;20238;-85
2022/01/09 03:55:03;;;;;;;201.43;56.53;;;;;;;7.29;100.00;98468.09;4956294;29;20439;-85
2022/01/09 03:57:28;;;;;;;160.70;47.17;;;;;;;6.73;100.00;98469.88;4956821;29;20782;-85
2022/01/09 03:59:54;;;;;;;171.87;51.10;;;;;;;5.17;100.00;98200.00;4923348;29;20184;-86
2022/01/09 04:02:19;;;;;;;136.03;45.23;;;;;;;5.07;100.00;98149.38;4956714;29;20203;-87
2022/01/09 04:04:44;;;;;;;110.53;38.00;;;;;;;5.82;100.00;98302.47;4939427;29;20220;-85
2022/01/09 04:07:10;;;;;;;103.90;35.17;;;;;;;6.16;100.00;98302.31;4956903;29;20192;-84
2022/01/09 04:09:39;;;;;;;105.90;36.10;;;;;;;6.40;100.00;98358.66;4956548;29;20212;-88
2022/01/09 04:12:15;;;;;;;110.60;35.30;;;;;;;6.00;100.00;98290.75;4960261;29;20597;-84
2022/01/09 04:14:46;;;;;;;106.73;36.10;;;;;;;6.91;100.00;98451.41;4972372;29;20407;-83
2022/01/09 04:17:20;;;;;;;104.97;36.50;;;;;;;6.50;100.00;98370.81;4948446;29;20677;-86
2022/01/09 04:19:46;;;;;;;105.57;36.63;;;;;;;7.03;100.00;98467.00;4957764;29;20495;-86
2022/01/09 04:22:11;;;;;;;99.17;35.37;;;;;;;6.59;100.00;98380.41;4961300;29;20536;-85
2022/01/09 04:24:37;;;;;;;103.17;36.40;;;;;;;6.97;100.00;98463.38;4956877;29;20191;-86
2022/01/09 04:27:05;;;;;;;97.67;36.50;;;;;;;6.35;100.00;98355.06;4939086;29;20420;-86
2022/01/09 04:29:30;;;;;;;108.00;37.83;;;;;;;6.83;100.00;98447.72;4939765;29;20308;-85
2022/01/09 04:31:56;;;;;;;105.07;37.90;;;;;;;6.22;100.00;98328.56;4956521;29;20192;-85
2022/01/09 04:34:21;;;;;;;112.77;40.87;;;;;;;6.84;100.00;98451.09;4942011;29;20317;-85
2022/01/09 04:36:50;;;;;;;123.27;43.83;;;;;;;6.83;100.00;98451.88;4943400;29;20263;-84
2022/01/09 04:39:16;;;;;;;111.30;40.57;;;;;;;6.41;100.00;98376.31;4939939;29;20193;-84
2022/01/09 04:41:41;;;;;;;108.87;40.07;;;;;;;5.12;100.00;98146.28;4956104;29;20456;-85
2022/01/09 04:44:06;;;;;;;118.87;42.57;;;;;;;5.69;100.00;98255.00;4938740;29;20181;-86
2022/01/09 04:46:49;;;;;;;110.07;41.67;;;;;;;6.62;100.00;98390.59;4955880;29;20228;-85
2022/01/09 04:49:17;;;;;;;108.30;41.10;;;;;;;7.10;100.00;98465.63;4941308;29;20559;-84
2022/01/09 04:51:43;;;;;;;135.23;46.27;;;;;;;6.08;100.00;98319.56;4940788;29;20424;-84
2022/01/09 04:54:08;;;;;;;181.37;74.03;;;;;;;4.69;100.00;98148.50;4955763;29;20400;-86
2022/01/09 04:56:35;;;;;;;160.00;56.67;;;;;;;6.36;100.00;98392.00;4954004;29;20216;-86
2022/01/09 04:59:00;;;;;;;171.70;65.00;;;;;;;6.71;100.00;98461.38;4955825;29;20171;-85
2022/01/09 05:01:26;;;;;;;165.90;63.00;;;;;;;6.34;100.00;98393.59;4955439;29;20448;-86
2022/01/09 05:03:51;;;;;;;165.43;57.73;;;;;;;4.52;100.00;98086.72;4938215;29;20684;-85
2022/01/09 05:06:16;;;;;;;136.53;49.90;;;;;;;3.88;100.00;97946.81;4955225;29;20251;-87
2022/01/09 05:08:42;;;;;;;140.17;48.53;;;;;;;5.72;100.00;98233.41;4955449;29;20224;-84
2022/01/09 05:11:07;;;;;;;129.77;46.63;;;;;;;5.53;100.00;98162.28;4955483;29;20180;-86
2022/01/09 05:13:34;;;;;;;178.60;74.40;;;;;;;5.87;100.00;98225.72;4956248;29;20173;-85
2022/01/09 05:16:00;;;;;;;242.60;106.00;;;;;;;7.26;100.00;98454.50;4955534;29;20168;-83
2022/01/09 05:18:25;;;;;;;311.30;140.33;;;;;;;6.59;100.00;98340.19;4958494;29;20160;-85
2022/01/09 05:20:51;;;;;;;277.60;122.57;;;;;;;7.34;100.00;98449.00;4954078;29;20673;-85
2022/01/09 05:23:16;;;;;;;254.03;103.83;;;;;;;6.63;100.00;98337.88;4955061;29;20196;-87
2022/01/09 05:25:42;;;;;;;226.13;88.73;;;;;;;5.36;100.00;98143.97;4955367;29;20169;-85
2022/01/09 05:28:07;;;;;;;212.30;81.77;;;;;;;5.40;100.00;98132.44;4954920;28;20298;-84
2022/01/09 05:30:34;;;;;;;194.10;68.97;;;;;;;7.32;100.00;98460.66;4960041;29;20244;-83
2022/01/09 05:32:59;;;;;;;175.43;65.47;;;;;;;4.90;100.00;98033.28;4959898;29;20954;-85
2022/01/09 05:35:25;;;;;;;144.67;50.00;;;;;;;5.33;100.00;98192.38;4941282;29;20184;-84
2022/01/09 05:37:52;;;;;;;168.00;58.53;;;;;;;5.09;100.00;98105.16;4958737;29;20240;-85
2022/01/09 05:40:19;;;;;;;175.13;67.47;;;;;;;7.12;100.00;98458.97;4959003;29;20203;-84
2022/01/09 05:42:45;;;;;;;207.57;89.23;;;;;;;6.39;100.00;98398.03;4957662;29;20212;-83
2022/01/09 05:45:10;;;;;;;256.80;109.43;;;;;;;5.57;100.00;98262.00;4959158;29;20232;-85
2022/01/09 05:47:38;;;;;;;216.70;94.03;;;;;;;6.49;100.00;98406.81;4941662;29;20515;-87
2022/01/09 05:50:05;;;;;;;186.63;74.17;;;;;;;5.77;100.00;98278.81;4958811;29;20217;-84
2022/01/09 05:52:30;;;;;;;138.57;46.93;;;;;;;5.11;100.00;98198.88;4959105;29;20404;-85
2022/01/09 05:54:55;;;;;;;159.93;59.93;;;;;;;4.69;100.00;98107.53;4958095;29;20434;-84
2022/01/09 05:57:22;;;;;;;160.07;59.43;;;;;;;5.21;100.00;98189.34;4958594;29;20638;-86
2022/01/09 05:59:47;;;;;;;127.37;43.30;;;;;;;4.24;100.00;98065.34;4958667;29;20279;-86
2022/01/09 06:02:14;;;;;;;117.00;39.57;;;;;;;3.99;100.00;98028.28;4958760;29;20535;-83
2022/01/09 06:04:39;;;;;;;134.43;46.27;;;;;;;6.66;100.00;98456.19;4958460;29;20252;-85
2022/01/09 06:07:05;;;;;;;143.97;49.13;;;;;;;6.59;100.00;98451.69;4958687;29;20436;-85
2022/01/09 06:09:31;;;;;;;138.47;47.13;;;;;;;5.02;100.00;98185.94;4958206;29;20260;-85
2022/01/09 06:11:57;;;;;;;121.60;41.27;;;;;;;6.61;100.00;98424.06;4958229;29;20165;-85
2022/01/09 06:14:24;;;;;;;127.80;43.87;;;;;;;6.54;100.00;98403.69;4961268;29;20416;-86
2022/01/09 06:16:50;;;;;;;265.07;90.00;;;;;;;6.92;100.00;98450.59;4957188;29;20665;-85
2022/01/09 06:19:17;;;;;;;214.30;71.73;;;;;;;6.90;100.00;98423.66;4958651;29;20807;-84
2022/01/09 06:21:42;;;;;;;197.00;64.60;;;;;;;5.09;100.00;98115.19;4958052;29;20998;-86
2022/01/09 06:24:08;;;;;;;160.40;52.83;;;;;;;7.27;100.00;98447.03;4958306;29;20409;-86
2022/01/09 06:26:33;;;;;;;158.40;56.23;;;;;;;6.84;100.00;98375.63;4957788;29;20239;-86
2022/01/09 06:29:00;;;;;;;157.50;57.53;;;;;;;7.09;100.00;98385.88;4957935;29;20203;-84
2022/01/09 06:31:25;;;;;;;113.67;43.00;;;;;;;6.28;100.00;98253.44;4941012;29;20177;-86
2022/01/09 06:33:52;;;;;;;114.50;44.23;;;;;;;4.64;100.00;98028.78;4958087;29;20861;-85
2022/01/09 06:36:18;;;;;;;142.53;59.77;;;;;;;6.86;100.00;98426.84;4957402;29;20263;-86
2022/01/09 06:38:45;;;;;;;169.73;66.00;;;;;;;7.29;100.00;98447.97;4957520;29;20416;-83
2022/01/09 06:41:10;;;;;;;150.73;64.30;;;;;;;5.53;100.00;98164.78;4958303;28;20185;-86
2022/01/09 06:43:36;;;;;;;127.40;49.47;;;;;;;7.43;100.00;98451.03;4958364;29;20674;-87
2022/01/09 06:46:01;;;;;;;137.83;52.27;;;;;;;7.08;100.00;98390.06;4942940;29;20385;-83
2022/01/09 06:48:27;;;;;;;102.83;38.17;;;;;;;7.45;100.00;98417.56;4969313;29;20176;-84
2022/01/09 06:50:52;;;;;;;152.30;59.97;;;;;;;5.92;100.00;98191.63;4975853;29;20184;-86
2022/01/09 06:53:18;;;;;;;127.23;48.73;;;;;;;6.25;100.00;98205.59;4967147;29;20168;-83
2022/01/09 06:55:46;;;;;;;94.53;36.17;;;;;;;7.72;100.00;98427.84;4950690;29;20176;-86
2022/01/09 06:58:14;;;;;;;78.17;30.40;;;;;;;7.10;100.00;98312.97;4958492;29;20592;-85
2022/01/09 07:00:40;;;;;;;83.57;33.20;;;;;;;7.81;100.00;98409.72;4958236;29;20228;-85
2022/01/09 07:03:06;;;;;;;96.20;37.77;;;;;;;5.46;100.00;98005.59;4958059;29;20204;-85
2022/01/09 07:05:31;;;;;;;159.00;73.43;;;;;;;6.66;100.00;98206.38;4961445;29;20168;-84
2022/01/09 07:07:56;;;;;;;153.63;62.17;;;;;;;8.01;100.00;98434.88;4959907;29;20195;-86
2022/01/09 07:10:26;;;;;;;128.60;54.60;;;;;;;8.07;100.00;98412.44;4961058;29;20208;-85
2022/01/09 07:12:51;;;;;;;127.77;52.13;;;;;;;5.19;100.00;97967.66;4941891;29;20181;-86
2022/01/09 07:15:17;;;;;;;158.40;72.30;;;;;;;7.51;100.00;98312.06;4957893;29;20195;-86
2022/01/09 07:17:43;;;;;;;153.87;62.93;;;;;;;7.19;100.00;98231.97;4956154;29;20223;-86
2022/01/09 07:20:11;;;;;;;120.50;50.30;;;;;;;8.13;100.00;98410.13;4940681;29;20191;-86
2022/01/09 07:22:36;;;;;;;109.43;46.20;;;;;;;7.53;100.00;98328.06;4957085;29;20215;-86
2022/01/09 07:25:02;;;;;;;106.70;46.23;;;;;;;5.18;100.00;97917.44;4958069;29;20580;-85
2022/01/09 07:27:28;;;;;;;139.10;58.43;;;;;;;8.29;100.00;98417.47;4940393;29;20185;-86
2022/01/09 07:29:53;;;;;;;151.17;65.60;;;;;;;8.21;100.00;98412.97;4940302;29;20271;-85
2022/01/09 07:32:19;;;;;;;122.30;54.27;;;;;;;7.53;100.00;98310.44;4959113;29;20180;-87
2022/01/09 07:34:45;;;;;;;120.23;50.87;;;;;;;5.26;100.00;97932.00;4955895;29;20180;-88
2022/01/09 07:37:11;;;;;;;101.63;43.20;;;;;;;8.17;100.00;98423.72;4957394;29;20545;-86
2022/01/09 07:39:37;;;;;;;86.73;37.80;;;;;;;6.76;100.00;98223.53;4956499;29;20219;-84
2022/01/09 07:42:02;;;;;;;86.37;37.67;;;;;;;7.72;100.00;98343.06;4960415;29;20208;-86
2022/01/09 07:44:28;;;;;;;104.87;45.57;;;;;;;6.35;100.00;98113.81;4960101;29;20180;-84
2022/01/09 07:46:53;;;;;;;124.57;54.80;;;;;;;5.68;100.00;98002.28;4959312;29;20996;-85
2022/01/09 07:49:22;;;;;;;104.77;47.10;;;;;;;6.16;100.00;98049.44;4959020;29;20296;-84
2022/01/09 07:51:47;;;;;;;97.93;42.90;;;;;;;6.71;100.00;98125.28;4958035;28;20745;-84
2022/01/09 07:54:14;;;;;;;65.53;28.97;;;;;;;7.22;100.00;98191.81;4959012;29;20192;-86
2022/01/09 07:56:41;;;;;;;60.47;27.87;;;;;;;8.25;100.00;98362.69;4941680;29;20188;-83
2022/01/09 07:59:06;;;;;;;68.90;35.50;;;;;;;8.00;100.00;98322.28;4959721;29;20689;-84
2022/01/09 08:01:32;;;;;;;72.77;36.83;;;;;;;6.45;100.00;98056.44;4959103;29;20243;-86
2022/01/09 08:03:58;;;;;;;115.60;53.37;;;;;;;6.12;100.00;98024.16;4959311;29;20203;-87
2022/01/09 08:06:24;;;;;;;124.20;59.87;;;;;;;6.13;100.00;98049.31;4962393;29;20203;-85
2022/01/09 08:08:49;;;;;;;135.50;55.70;;;;;;;6.71;100.00;98110.22;4958080;29;20554;-84
2022/01/09 08:11:17;;;;;;;117.63;52.20;;;;;;;7.10;100.00;98174.59;4959735;29;20300;-85
2022/01/09 08:13:43;;;;;;;100.80;44.40;;;;;;;6.70;100.00;98125.25;4942396;29;20181;-85
2022/01/09 08:16:09;;;;;;;109.67;46.60;;;;;;;6.57;100.00;98081.16;4957440;29;20163;-86
2022/01/09 08:18:34;;;;;;;92.73;42.17;;;;;;;7.76;100.00;98291.16;4955626;29;20192;-83
2022/01/09 08:21:00;;;;;;;70.03;32.17;;;;;;;8.27;100.00;98411.53;4955702;29;20271;-84
2022/01/09 08:23:26;;;;;;;91.57;41.77;;;;;;;8.32;100.00;98419.28;4939368;29;20212;-85
2022/01/09 08:25:51;;;;;;;100.33;43.07;;;;;;;5.96;100.00;98014.31;4939078;29;20184;-86
2022/01/09 08:28:17;;;;;;;261.13;96.93;;;;;;;8.19;100.00;98414.53;4957361;29;20192;-84
2022/01/09 08:30:43;;;;;;;231.10;94.83;;;;;;;7.91;100.00;98435.31;4956229;29;20259;-86
2022/01/09 08:33:09;;;;;;;189.07;88.53;;;;;;;5.57;100.00;97989.31;4958082;29;20255;-86
2022/01/09 08:35:35;;;;;;;173.07;80.93;;;;;;;6.73;100.00;98143.81;4957825;29;20257;-84
2022/01/09 08:38:00;;;;;;;128.60;56.30;;;;;;;6.02;100.00;97979.34;4956934;29;20192;-84
2022/01/09 08:40:26;;;;;;;187.37;92.70;;;;;;;6.13;100.00;97998.22;4957227;29;20216;-85
2022/01/09 08:42:53;;;;;;;138.17;64.20;;;;;;;8.58;100.00;98383.22;4957558;29;20192;-84
2022/01/09 08:45:19;;;;;;;95.03;44.23;;;;;;;8.30;100.00;98325.06;4954786;29;20192;-88
2022/01/09 08:47:45;;;;;;;84.90;38.77;;;;;;;8.30;100.00;98297.31;4938676;29;20189;-85
2022/01/09 08:50:12;;;;;;;91.20;42.43;;;;;;;7.62;100.00;98210.06;4956273;29;20168;-87
2022/01/09 08:52:37;;;;;;;159.63;91.57;;;;;;;7.39;100.00;98188.22;4938480;29;20199;-84
2022/01/09 08:55:05;;;;;;;193.37;98.10;;;;;;;8.07;100.00;98295.66;4938735;29;20188;-86
2022/01/09 08:57:31;;;;;;;152.87;68.33;;;;;;;5.94;100.00;97969.03;4956797;29;20248;-83
2022/01/09 08:59:56;;;;;;;68.20;31.77;;;;;;;8.07;100.00;98382.19;4960306;29;20203;-84
2022/01/09 09:02:22;;;;;;;77.67;33.97;;;;;;;6.64;100.00;98180.31;4963314;29;20203;-87
2022/01/09 09:04:47;;;;;;;79.80;36.80;;;;;;;6.57;100.00;98105.44;4954613;29;20207;-86
2022/01/09 09:07:14;;;;;;;65.33;28.47;;;;;;;8.47;100.00;98373.56;4956213;29;20610;-85
2022/01/09 09:09:40;;;;;;;55.73;22.50;;;;;;;6.44;100.00;98084.88;4955815;29;20184;-84
2022/01/09 09:12:06;;;;;;;75.77;34.97;;;;;;;7.09;100.00;98220.66;4955796;29;20161;-83
2022/01/09 09:14:32;;;;;;;97.67;43.40;;;;;;;6.66;100.00;98095.75;4956318;29;20161;-86
2022/01/09 09:16:57;;;;;;;93.27;42.27;;;;;;;8.42;100.00;98358.28;4956255;29;20195;-84
2022/01/09 09:19:23;;;;;;;92.50;40.30;;;;;;;7.64;100.00;98215.16;4957316;29;20188;-82
2022/01/09 09:21:48;;;;;;;174.17;85.10;;;;;;;8.07;100.00;98262.88;4938151;29;20209;-84
2022/01/09 09:24:14;;;;;;;122.27;48.40;;;;;;;8.56;100.00;98348.66;4956798;29;20172;-87
2022/01/09 09:26:41;;;;;;;72.50;32.03;;;;;;;8.40;100.00;98286.78;4955338;29;20177;-85
2022/01/09 09:29:07;;;;;;;60.93;26.63;;;;;;;8.44;100.00;98297.78;4956127;29;20621;-85
2022/01/09 09:31:33;;;;;;;56.47;24.37;;;;;;;6.74;100.00;98034.88;4955122;29;20228;-85
2022/01/09 09:33:58;;;;;;;57.30;24.87;;;;;;;7.23;100.00;98097.88;4956509;29;20229;-84
2022/01/09 09:36:24;;;;;;;54.97;24.30;;;;;;;8.32;100.00;98270.53;4939186;29;20184;-86
2022/01/09 09:38:50;;;;;;;55.03;25.23;;;;;;;7.49;100.00;98127.34;4938793;29;20192;-85
2022/01/09 09:41:16;;;;;;;59.17;26.97;;;;;;;8.98;100.00;98349.25;4960013;29;20176;-87
2022/01/09 09:43:41;;;;;;;54.87;23.77;;;;;;;8.73;100.00;98287.91;4960447;29;20176;-87
2022/01/09 09:46:07;;;;;;;58.67;25.53;;;;;;;7.52;100.00;98119.03;4961639;29;20237;-85
2022/01/09 09:48:34;;;;;;;58.70;26.20;;;;;;;4.89;100.00;97724.88;4964048;29;20204;-88
2022/01/09 09:50:59;;;;;;;56.33;25.30;;;;;;;5.33;100.00;97840.28;4945392;29;20188;-88
2022/01/09 09:53:24;;;;;;;50.23;23.40;;;;;;;8.34;100.00;98336.97;4963974;29;20194;-86
2022/01/09 09:55:53;;;;;;;51.97;22.30;;;;;;;8.32;100.00;98322.59;4964345;29;20199;-87
2022/01/09 09:58:20;;;;;;;56.23;25.97;;;;;;;6.59;100.00;98039.38;4964834;29;20180;-86
2022/01/09 10:00:57;;;;;;;66.37;31.60;;;;;;;6.99;100.00;98092.81;4944221;29;20188;-87
2022/01/09 10:03:33;;;;;;;91.80;37.87;;;;;;;8.57;100.00;98320.97;4965281;29;20212;-89
2022/01/09 10:06:00;;;;;;;98.93;40.70;;;;;;;7.36;100.00;98082.38;4964850;29;20171;-87
2022/01/09 10:08:48;;;;;;;100.57;43.20;;;;;;;8.60;100.00;98310.97;4957134;29;20191;-87
2022/01/09 10:11:18;;;;;;;190.27;63.60;;;;;;;7.68;100.00;98170.00;4960043;29;20180;-89
2022/01/09 10:13:44;;;;;;;89.03;35.93;;;;;;;8.53;100.00;98318.28;4958115;29;20169;-89
2022/01/09 10:16:10;;;;;;;81.50;34.17;;;;;;;6.36;100.00;97949.69;4973717;28;20228;-88
2022/01/09 10:18:41;;;;;;;55.20;24.43;;;;;;;8.54;100.00;98320.84;4948441;29;20207;-89
2022/01/09 10:21:10;;;;;;;56.87;25.43;;;;;;;6.58;100.00;97974.78;4963738;29;20180;-88
2022/01/09 10:23:55;;;;;;;57.47;29.23;;;;;;;7.97;100.00;98280.97;4945238;29;20201;-89
2022/01/09 10:26:21;;;;;;;41.63;18.20;;;;;;;6.63;100.00;98100.66;4960180;29;20169;-88
2022/01/09 10:28:46;;;;;;;49.27;23.53;;;;;;;8.01;100.00;98315.59;4958966;29;20188;-88
2022/01/09 10:31:17;;;;;;;44.23;20.43;;;;;;;6.51;100.00;98039.06;4957330;29;20192;-87
2022/01/09 10:34:08;;;;;;;50.00;22.27;;;;;;;7.22;100.00;98211.94;4958646;29;20557;-88
2022/01/09 10:36:39;;;;;;;65.57;27.67;;;;;;;7.95;100.00;98292.69;4957833;29;20188;-87
2022/01/09 10:39:08;;;;;;;46.57;19.20;;;;;;;7.55;100.00;98240.03;4956455;29;20247;-85
2022/01/09 10:41:59;;;;;;;60.33;26.43;;;;;;;8.26;100.00;98285.41;4941145;29;20243;-86
2022/01/09 10:44:35;;;;;;;65.63;32.07;;;;;;;8.14;100.00;98245.50;4956641;29;20203;-86
2022/01/09 10:47:06;;;;;;;88.47;44.77;;;;;;;7.31;100.00;98171.13;4951646;29;20263;-87
2022/01/09 10:49:43;;;;;;;115.13;53.47;;;;;;;8.40;100.00;98275.81;4936462;29;20289;-86
2022/01/09 10:52:25;;;;;;;65.80;31.63;;;;;;;8.51;100.00;98267.81;4939908;29;20580;-86
2022/01/09 10:54:52;;;;;;;84.63;40.97;;;;;;;8.49;100.00;98264.38;4923107;29;20203;-86
2022/01/09 10:57:23;;;;;;;59.53;28.23;;;;;;;8.52;100.00;98261.94;4922264;29;20173;-88
2022/01/09 10:59:50;;;;;;;46.23;21.00;;;;;;;8.51;100.00;98269.47;4938774;29;20217;-87
2022/01/09 11:02:16;;;;;;;103.67;38.90;;;;;;;7.44;100.00;98149.00;4941040;29;20205;-88
2022/01/09 11:04:43;;;;;;;152.67;60.17;;;;;;;8.04;100.00;98261.13;4924657;29;20193;-86
2022/01/09 11:07:10;;;;;;;110.20;47.30;;;;;;;5.76;100.00;97842.78;4958335;29;20595;-88
2022/01/09 11:09:38;;;;;;;46.37;21.47;;;;;;;6.42;100.00;97904.69;4938141;29;20646;-86
2022/01/09 11:12:06;;;;;;;43.43;19.00;;;;;;;7.81;100.00;98171.25;4939513;29;20157;-86